Home > Products > Valid Products > TAF

000
FTUS44 KMAF 161900 AAA
TAFMAF
TAF AMD
KMAF 161959Z 1620/1718 16014G24KT P6SM SCT250
     FM170100 14015G25KT P6SM SCT250
     FM171000 18010KT P6SM BKN250
     FM171300 36010KT P6SM BKN250=



000
FTUS44 KMAF 161700
TAFMAF
TAF
KMAF 161722Z 1618/1718 18016G23KT P6SM SCT250
     FM170100 16017G23KT P6SM SCT250
     FM171000 18010KT P6SM BKN250
     FM171300 36010KT P6SM BKN250=



000
FTUS44 KMAF 161100
TAFMAF
TAF
KMAF 161120Z 1612/1712 18016G24KT P6SM SCT250
     FM170100 16015KT P6SM SCT250
     FM171100 36010KT P6SM SCT250=



000
FTUS44 KMAF 160500
TAFMAF
TAF
KMAF 160520Z 1606/1706 16014KT P6SM SCT250
     FM161500 18016G26KT P6SM SCT250=



000
FTUS44 KMAF 160200 AAB
TAFMAF
TAF AMD
KMAF 160208Z 1602/1624 16011KT P6SM SCT250
     FM161500 18015G24KT P6SM SCT250=



000
FTUS44 KMAF 160100 AAA
TAFMAF
TAF AMD
KMAF 160113Z 1601/1624 18011KT P6SM SCT250
     FM161500 18015G24KT P6SM SCT250=



000
FTUS44 KMAF 152300
TAFMAF
TAF
KMAF 152331Z 1600/1624 18011KT P6SM SKC
      TEMPO 1600/1602 20011G22KT
     FM161500 18015G24KT P6SM SCT250=



000
FTUS44 KMAF 152200 AAA
TAFMAF
TAF AMD
KMAF 152201Z 1522/1618 18011KT P6SM SKC
      TEMPO 1522/1524 20011G22KT
     FM161500 18015G24KT P6SM SCT250=



000
FTUS44 KMAF 152100 AAA
TAFMAF
TAF AMD
KMAF 152106Z 1521/1618 19011KT P6SM SKC
     FM161500 18015G24KT P6SM SCT250=



000
FTUS44 KMAF 151700
TAFMAF
TAF
KMAF 151720Z 1518/1618 18013G19KT P6SM SKC
      TEMPO 1601/1604 17010KT
     FM161500 18015G24KT P6SM SCT250=



000
FTUS44 KMAF 151100
TAFMAF
TAF
KMAF 151121Z 1512/1612 30006KT P6SM SKC
     FM151800 18013KT P6SM SKC=



000
FTUS44 KMAF 150500
TAFMAF
TAF
KMAF 150521Z 1506/1606 01006KT P6SM SKC
     FM151700 18013KT P6SM SKC=



000
FTUS44 KMAF 142300
TAFMAF
TAF
KMAF 142320Z 1500/1524 36015G25KT P6SM SKC
     FM150200 04006KT P6SM SKC
     FM151700 18014G20KT P6SM SKC=



000
FTUS44 KMAF 141700
TAFMAF
TAF
KMAF 141720Z 1418/1518 36020G30KT P6SM SCT250
     FM150100 03007KT P6SM SKC
     FM151200 13006KT P6SM SKC=



000
FTUS44 KMAF 141600 AAA
TAFMAF
TAF AMD
KMAF 141604Z 1416/1512 36021G31KT P6SM BKN035
     FM141800 36020G30KT P6SM SCT250
     FM150100 03007KT P6SM SKC=



000
FTUS44 KMAF 141100
TAFMAF
TAF
KMAF 141120Z 1412/1512 02022G32KT P6SM BKN025
     FM141700 01017G27KT P6SM SKC
     FM150200 04007KT P6SM SKC=



000
FTUS44 KMAF 141000 AAA
TAFMAF
TAF AMD
KMAF 141001Z 1410/1506 03025G35KT P6SM SKC
      TEMPO 1410/1411 BKN025
     FM141100 02022G32KT P6SM BKN030
     FM141700 01015G25KT P6SM SKC
     FM150200 04007KT P6SM SKC=



000
FTUS44 KMAF 140500
TAFMAF
TAF
KMAF 140533Z 1406/1506 03025G35KT P6SM SKC
      TEMPO 1406/1408 2SM BLDU
     FM141100 02022G32KT P6SM BKN030
     FM141700 01015G25KT P6SM SKC
     FM150200 04007KT P6SM SKC=



000
FTUS44 KMAF 132300
TAFMAF
TAF
KMAF 132320Z 1400/1424 25015G25KT P6SM SKC
     FM140100 24007KT P6SM SKC
     FM140600 03025G35KT 6SM BLDU SKC
     FM141100 02022G32KT P6SM BKN015
     FM141700 01015G25KT P6SM SKC=



    US Dept of Commerce
    National Oceanic and Atmospheric Administration
    National Weather Service
    1325 East West Highway
    Silver Spring, MD 20910
    Page Author: NWS Internet Services Team
Disclaimer
Information Quality
Credits
Glossary
Privacy Policy
Freedom of Information Act (FOIA)
About Us
Career Opportunities